Time;durP1;ratioP1;P1;durP2;ratioP2;P2;SDS_P1;SDS_P2;PMS_P1;PMS_P2;Temp;Humidity;BMP_temperature;BMP_pressure;BME280_temperature;BME280_humidity;BME280_pressure;Samples;Min_cycle;Max_cycle;Signal;HPM_P1;HPM_P2
2021/08/24 00:02:42;;;;;;;11.60;9.95;;;;;;;15.40;80.26;99622.13;2617058;46;20045;-68
2021/08/24 00:05:14;;;;;;;13.40;9.68;;;;;;;15.41;80.50;99612.28;2617854;54;20081;-70
2021/08/24 00:07:46;;;;;;;15.15;10.23;;;;;;;15.40;80.71;99614.13;2617942;39;20445;-69
2021/08/24 00:10:15;;;;;;;12.77;9.52;;;;;;;15.41;80.49;99614.94;2618012;54;20029;-70
2021/08/24 00:12:45;;;;;;;11.20;9.52;;;;;;;15.36;80.93;99616.38;2617883;54;20022;-70
2021/08/24 00:15:15;;;;;;;9.60;8.05;;;;;;;15.36;81.00;99615.56;2618177;39;20423;-69
2021/08/24 00:17:47;;;;;;;11.38;9.25;;;;;;;15.31;80.92;99610.84;2617519;54;20042;-68
2021/08/24 00:20:18;;;;;;;11.55;8.68;;;;;;;15.35;80.74;99613.94;2617837;54;20038;-69
2021/08/24 00:22:47;;;;;;;10.90;9.35;;;;;;;15.34;80.79;99621.06;2617844;54;20030;-69
2021/08/24 00:25:17;;;;;;;16.60;8.73;;;;;;;15.41;80.59;99618.44;2617953;54;20053;-70
2021/08/24 00:27:47;;;;;;;11.05;8.80;;;;;;;15.44;80.30;99614.53;2618515;39;20457;-69
2021/08/24 00:30:17;;;;;;;10.77;7.90;;;;;;;15.47;80.57;99614.97;2617840;54;20066;-70
2021/08/24 00:32:49;;;;;;;11.10;8.82;;;;;;;15.47;79.81;99617.63;2617805;54;20065;-69
2021/08/24 00:35:19;;;;;;;10.23;9.23;;;;;;;15.44;79.72;99612.69;2617158;54;20034;-70
2021/08/24 00:37:49;;;;;;;10.82;8.10;;;;;;;15.38;79.98;99621.50;2617406;54;20038;-69
2021/08/24 00:40:19;;;;;;;9.15;8.25;;;;;;;15.38;79.83;99620.69;2617757;54;20030;-69
2021/08/24 00:42:48;;;;;;;10.40;8.18;;;;;;;15.41;80.01;99626.41;2617733;54;20053;-70
2021/08/24 00:45:19;;;;;;;9.02;7.85;;;;;;;15.37;79.66;99619.84;2617686;54;20062;-69
2021/08/24 00:47:52;;;;;;;10.63;7.78;;;;;;;15.36;79.93;99621.72;2617305;54;20042;-70
2021/08/24 00:50:27;;;;;;;7.85;7.07;;;;;;;15.35;79.81;99625.41;2617882;54;20550;-69
2021/08/24 00:52:59;;;;;;;8.95;8.05;;;;;;;15.37;79.68;99622.53;2617752;54;20540;-69
2021/08/24 00:55:30;;;;;;;8.95;7.82;;;;;;;15.24;79.13;99620.66;2617428;54;20042;-70
2021/08/24 00:58:05;;;;;;;12.82;8.30;;;;;;;15.19;79.61;99624.97;2617327;54;20027;-69
2021/08/24 01:00:36;;;;;;;10.98;8.23;;;;;;;15.11;79.58;99624.13;2617656;54;20034;-70
2021/08/24 01:03:11;;;;;;;9.73;8.70;;;;;;;15.05;79.75;99624.91;2617492;54;20634;-69
2021/08/24 01:05:44;;;;;;;10.45;9.35;;;;;;;15.05;79.83;99618.78;2617647;54;20050;-70
2021/08/24 01:08:32;;;;;;;9.93;8.73;;;;;;;14.99;79.29;99627.59;2617264;54;20533;-70
2021/08/24 01:11:13;;;;;;;10.48;8.75;;;;;;;14.84;79.79;99633.88;2617558;54;20022;-69
2021/08/24 01:13:48;;;;;;;9.98;8.88;;;;;;;14.76;79.77;99625.25;2617517;54;20023;-71
2021/08/24 01:16:27;;;;;;;12.75;9.38;;;;;;;14.81;80.11;99628.94;2617566;54;20038;-68
2021/08/24 01:19:21;;;;;;;12.15;9.82;;;;;;;14.75;79.75;99631.59;2617667;54;20102;-70
2021/08/24 01:22:33;;;;;;;13.82;10.68;;;;;;;14.74;80.16;99627.31;2617649;54;20126;-70
2021/08/24 01:25:08;;;;;;;12.35;8.65;;;;;;;14.72;79.94;99632.81;2617499;54;20030;-70
2021/08/24 01:27:44;;;;;;;11.77;10.57;;;;;;;14.66;79.80;99625.63;2617705;39;20564;-68
2021/08/24 01:30:22;;;;;;;10.65;9.07;;;;;;;14.52;79.96;99622.09;2617587;54;20039;-68
2021/08/24 01:33:03;;;;;;;11.13;9.05;;;;;;;14.47;80.10;99623.69;2617398;54;20037;-68
2021/08/24 01:36:06;;;;;;;14.00;9.10;;;;;;;14.50;80.13;99626.78;2617312;54;20045;-68
2021/08/24 01:38:43;;;;;;;8.70;7.78;;;;;;;14.52;80.17;99626.59;2617108;39;20404;-68
2021/08/24 01:41:20;;;;;;;13.13;9.82;;;;;;;14.55;79.65;99634.19;2617295;54;20027;-68
2021/08/24 01:43:59;;;;;;;13.13;9.70;;;;;;;14.47;80.25;99629.00;2617290;39;20411;-69
2021/08/24 01:46:42;;;;;;;13.00;10.50;;;;;;;14.42;79.72;99634.91;2616848;54;20027;-69
2021/08/24 01:49:15;;;;;;;11.90;8.65;;;;;;;14.35;79.82;99640.19;2618620;54;20045;-70
2021/08/24 01:51:52;;;;;;;9.23;8.32;;;;;;;14.35;80.10;99640.19;2620420;54;20042;-69
2021/08/24 01:54:26;;;;;;;9.75;7.00;;;;;;;14.37;79.80;99640.00;2620705;54;20061;-67
2021/08/24 01:56:58;;;;;;;11.27;6.85;;;;;;;14.38;79.91;99639.81;2619880;54;20028;-69
2021/08/24 01:59:32;;;;;;;7.28;6.57;;;;;;;14.42;79.68;99634.91;2620619;54;20074;-70
2021/08/24 02:02:07;;;;;;;8.10;6.25;;;;;;;14.50;79.39;99637.44;2619908;54;20035;-68
2021/08/24 02:04:43;;;;;;;7.82;6.45;;;;;;;14.50;79.00;99648.09;2619910;47;20094;-69
2021/08/24 02:07:18;;;;;;;6.95;6.25;;;;;;;14.54;78.94;99632.53;2620113;54;20022;-68
2021/08/24 02:09:50;;;;;;;6.05;5.55;;;;;;;14.45;79.01;99641.66;2621406;54;20078;-68
2021/08/24 02:12:25;;;;;;;5.95;5.40;;;;;;;14.38;78.64;99641.63;2620782;54;20027;-68
2021/08/24 02:14:54;;;;;;;;;;;;;;;14.36;78.65;99639.16;2619155;54;20027;-69
2021/08/24 02:17:26;;;;;;;5.78;5.28;;;;;;;14.40;78.84;99636.13;2618105;54;19980;-69
2021/08/24 02:20:03;;;;;;;5.50;5.00;;;;;;;14.35;78.26;99636.72;2618391;54;20021;-69
2021/08/24 02:22:40;;;;;;;7.28;5.13;;;;;;;14.33;78.70;99636.09;2618103;54;20035;-68
2021/08/24 02:25:15;;;;;;;6.00;5.18;;;;;;;14.29;78.68;99640.97;2618057;54;20534;-69
2021/08/24 02:27:53;;;;;;;9.18;6.03;;;;;;;14.29;78.50;99643.66;2617618;54;20057;-69
2021/08/24 02:30:25;;;;;;;6.72;5.38;;;;;;;14.24;78.56;99645.22;2618002;54;20018;-69
2021/08/24 02:32:55;;;;;;;6.75;6.15;;;;;;;14.10;78.17;99639.84;2618060;54;20065;-69
2021/08/24 02:35:29;;;;;;;6.38;5.78;;;;;;;13.99;78.55;99640.38;2618244;54;20042;-69
2021/08/24 02:38:07;;;;;;;5.63;5.13;;;;;;;13.97;79.00;99646.91;2617021;51;20593;-67
2021/08/24 02:40:43;;;;;;;6.70;5.82;;;;;;;13.99;79.53;99639.56;2617929;54;20554;-68
2021/08/24 02:43:26;;;;;;;9.10;6.03;;;;;;;14.06;79.17;99641.25;2618053;54;20030;-68
2021/08/24 02:46:00;;;;;;;6.25;5.20;;;;;;;14.01;79.17;99640.19;2618076;54;20030;-69
2021/08/24 02:48:30;;;;;;;;;;;;;;;13.95;78.55;99638.31;2618190;54;20549;-69
2021/08/24 02:51:00;;;;;;;7.00;5.57;;;;;;;13.80;78.72;99639.22;2620272;54;19947;-68
2021/08/24 02:53:34;;;;;;;6.10;5.50;;;;;;;13.79;79.54;99640.22;2617933;54;20038;-69
2021/08/24 02:56:03;;;;;;;9.40;6.03;;;;;;;13.80;78.92;99644.53;2617816;54;20035;-69
2021/08/24 02:58:33;;;;;;;10.18;6.68;;;;;;;13.82;79.39;99639.03;2617619;54;20049;-69
2021/08/24 03:01:02;;;;;;;6.30;5.70;;;;;;;13.84;79.50;99642.31;2617526;54;20558;-68
2021/08/24 03:03:32;;;;;;;8.25;6.20;;;;;;;13.87;79.55;99644.56;2617637;54;20034;-69
2021/08/24 03:06:02;;;;;;;6.90;6.07;;;;;;;13.91;78.91;99643.19;2617753;54;20030;-69
2021/08/24 03:08:35;;;;;;;9.38;6.70;;;;;;;13.92;78.66;99644.00;2617859;39;20411;-68
2021/08/24 03:11:05;;;;;;;9.88;6.20;;;;;;;13.92;79.10;99649.31;2617949;54;20541;-69
2021/08/24 03:13:42;;;;;;;8.82;6.97;;;;;;;13.88;78.71;99649.72;2618037;54;20518;-68
2021/08/24 03:16:18;;;;;;;7.63;5.60;;;;;;;13.88;78.95;99646.25;2617208;47;20023;-68
2021/08/24 03:18:52;;;;;;;10.85;6.45;;;;;;;13.92;78.55;99650.16;2617665;54;20034;-69
2021/08/24 03:21:25;;;;;;;7.47;6.13;;;;;;;13.91;78.15;99651.16;2617773;54;20087;-68
2021/08/24 03:23:57;;;;;;;11.40;6.40;;;;;;;13.87;78.13;99649.91;2618160;54;20018;-68
2021/08/24 03:26:30;;;;;;;7.18;5.82;;;;;;;13.86;78.58;99657.03;2617961;54;20023;-68
2021/08/24 03:29:00;;;;;;;;;;;;;;;13.86;78.57;99653.56;2618194;54;20030;-69
2021/08/24 03:31:30;;;;;;;8.45;5.97;;;;;;;13.86;78.26;99654.38;2618089;54;19946;-69
2021/08/24 03:34:00;;;;;;;6.82;5.97;;;;;;;13.86;77.67;99651.72;2618043;54;20049;-69
2021/08/24 03:36:29;;;;;;;8.82;6.90;;;;;;;13.73;77.95;99656.94;2618072;31;20487;-69
2021/08/24 03:39:01;;;;;;;7.22;6.53;;;;;;;13.61;78.03;99658.47;2617983;54;20042;-69
2021/08/24 03:41:31;;;;;;;8.73;6.45;;;;;;;13.61;78.64;99654.00;2617959;54;20031;-69
2021/08/24 03:44:01;;;;;;;7.65;6.20;;;;;;;13.72;78.82;99652.66;2617991;54;20021;-68
2021/08/24 03:46:31;;;;;;;7.15;6.10;;;;;;;13.72;78.34;99660.63;2617610;54;20030;-70
2021/08/24 03:49:00;;;;;;;7.78;6.35;;;;;;;13.62;78.09;99652.97;2617908;54;20045;-70
2021/08/24 03:51:30;;;;;;;11.45;6.72;;;;;;;13.50;77.84;99657.16;2618002;54;20038;-69
2021/08/24 03:54:02;;;;;;;7.47;6.55;;;;;;;13.41;78.44;99657.47;2618028;54;20037;-69
2021/08/24 03:56:32;;;;;;;10.40;6.68;;;;;;;13.42;78.55;99662.59;2617494;54;20057;-70
2021/08/24 03:59:01;;;;;;;10.30;5.82;;;;;;;13.40;78.84;99667.28;2617849;54;20042;-69
2021/08/24 04:01:31;;;;;;;6.57;5.97;;;;;;;13.40;79.11;99669.13;2617914;54;20038;-69
2021/08/24 04:04:01;;;;;;;11.32;6.60;;;;;;;13.38;78.79;99663.97;2617616;54;20023;-70
2021/08/24 04:06:31;;;;;;;8.18;6.53;;;;;;;13.37;79.18;99679.09;2617336;54;20045;-69
2021/08/24 04:09:03;;;;;;;8.95;6.57;;;;;;;13.38;78.93;99682.56;2617683;54;20027;-69
2021/08/24 04:11:32;;;;;;;9.00;6.22;;;;;;;13.35;78.49;99677.66;2617690;54;20042;-69
2021/08/24 04:14:02;;;;;;;8.15;6.18;;;;;;;13.31;78.53;99681.72;2617679;54;20070;-68
2021/08/24 04:16:32;;;;;;;6.53;5.93;;;;;;;13.14;78.86;99683.72;2617622;39;20422;-68
2021/08/24 04:19:01;;;;;;;10.35;6.38;;;;;;;13.10;78.96;99693.06;2617733;54;20026;-70
2021/08/24 04:21:32;;;;;;;8.32;5.90;;;;;;;13.09;79.35;99694.91;2617661;54;20038;-69
2021/08/24 04:24:05;;;;;;;7.25;6.43;;;;;;;13.16;78.78;99688.84;2617552;39;20488;-69
2021/08/24 04:26:35;;;;;;;7.85;6.28;;;;;;;13.19;78.97;99693.81;2617399;54;20033;-69
2021/08/24 04:29:05;;;;;;;10.88;5.82;;;;;;;13.22;79.10;99690.75;2617908;54;20049;-69
2021/08/24 04:31:38;;;;;;;8.48;5.63;;;;;;;13.24;78.79;99694.09;2617532;54;20046;-69
2021/08/24 04:34:08;;;;;;;9.95;5.95;;;;;;;13.26;78.83;99695.53;2617874;54;20557;-69
2021/08/24 04:36:38;;;;;;;7.72;6.15;;;;;;;13.22;78.54;99699.53;2616828;47;20034;-69
2021/08/24 04:39:10;;;;;;;9.45;5.80;;;;;;;13.25;78.72;99707.16;2617661;54;20058;-70
2021/08/24 04:41:40;;;;;;;7.68;6.10;;;;;;;13.26;78.36;99703.50;2617636;54;20041;-70
2021/08/24 04:44:09;;;;;;;8.20;5.00;;;;;;;13.21;78.01;99699.72;2617024;47;20542;-68
2021/08/24 04:46:39;;;;;;;7.63;5.90;;;;;;;13.20;78.25;99701.56;2617232;54;20616;-69
2021/08/24 04:49:09;;;;;;;7.80;6.32;;;;;;;13.21;78.09;99705.03;2617599;54;20046;-69
2021/08/24 04:51:38;;;;;;;6.05;5.45;;;;;;;13.16;78.08;99712.75;2617573;54;20063;-70
2021/08/24 04:54:11;;;;;;;8.60;6.22;;;;;;;13.13;78.18;99706.78;2617445;54;20039;-70
2021/08/24 04:56:40;;;;;;;6.95;6.00;;;;;;;13.16;78.61;99710.91;2617007;54;20026;-69
2021/08/24 04:59:10;;;;;;;9.05;6.35;;;;;;;13.23;78.58;99711.03;2617494;54;20031;-68
2021/08/24 05:01:39;;;;;;;7.78;6.20;;;;;;;13.31;77.96;99710.91;2617458;54;20055;-69
2021/08/24 05:04:10;;;;;;;7.60;5.78;;;;;;;13.33;77.76;99714.19;2617311;39;20438;-69
2021/08/24 05:06:39;;;;;;;9.23;5.68;;;;;;;13.25;77.89;99709.81;2617031;54;20034;-68
2021/08/24 05:09:11;;;;;;;12.60;6.07;;;;;;;13.23;77.52;99713.69;2617472;54;20077;-71
2021/08/24 05:11:41;;;;;;;8.52;5.60;;;;;;;13.23;77.93;99711.84;2617357;54;20045;-68
2021/08/24 05:14:13;;;;;;;6.53;5.10;;;;;;;13.24;77.45;99716.16;2617419;54;20078;-69
2021/08/24 05:16:43;;;;;;;6.80;5.97;;;;;;;13.32;77.66;99718.69;2617021;54;20034;-68
2021/08/24 05:19:12;;;;;;;6.70;5.47;;;;;;;13.34;77.49;99713.19;2617385;54;20123;-68
2021/08/24 05:21:42;;;;;;;8.02;5.55;;;;;;;13.36;77.20;99714.63;2617809;39;20530;-68
2021/08/24 05:24:14;;;;;;;7.95;5.10;;;;;;;13.31;77.22;99722.34;2617437;54;20038;-68
2021/08/24 05:26:44;;;;;;;9.05;5.40;;;;;;;13.33;77.40;99722.16;2617021;54;20053;-69
2021/08/24 05:29:16;;;;;;;6.75;5.90;;;;;;;13.30;77.20;99719.88;2617433;54;20075;-69
2021/08/24 05:31:46;;;;;;;7.72;5.15;;;;;;;13.23;77.37;99729.63;2617433;54;20082;-69
2021/08/24 05:34:16;;;;;;;6.72;4.82;;;;;;;13.29;77.05;99724.38;2617601;54;20038;-69
2021/08/24 05:36:46;;;;;;;10.10;5.60;;;;;;;13.31;77.33;99721.53;2617123;54;20039;-70
2021/08/24 05:39:18;;;;;;;5.72;4.78;;;;;;;13.34;76.90;99721.97;2617404;54;20038;-68
2021/08/24 05:41:48;;;;;;;9.13;5.55;;;;;;;13.38;76.70;99728.53;2617894;54;20034;-70
2021/08/24 05:44:17;;;;;;;6.97;6.07;;;;;;;13.46;76.76;99732.91;2618623;54;20038;-68
2021/08/24 05:46:47;;;;;;;6.68;4.43;;;;;;;13.52;76.68;99731.34;2618362;54;20034;-69
2021/08/24 05:49:17;;;;;;;5.03;4.53;;;;;;;13.54;76.25;99731.97;2619585;54;20026;-69
2021/08/24 05:51:46;;;;;;;5.43;4.20;;;;;;;13.63;76.62;99730.84;2618912;54;20042;-69
2021/08/24 05:54:18;;;;;;;6.00;4.35;;;;;;;13.77;76.40;99737.13;2618907;54;20039;-70
2021/08/24 05:56:49;;;;;;;5.20;4.25;;;;;;;13.82;75.83;99738.19;2618106;54;20656;-70
2021/08/24 05:59:19;;;;;;;5.40;4.38;;;;;;;13.87;75.26;99734.94;2618251;54;20026;-68
2021/08/24 06:01:49;;;;;;;8.18;4.30;;;;;;;13.87;75.20;99737.59;2620054;54;20042;-66
2021/08/24 06:04:18;;;;;;;7.57;4.65;;;;;;;13.92;75.00;99737.88;2622870;54;20041;-66
2021/08/24 06:06:48;;;;;;;8.63;5.00;;;;;;;13.90;74.02;99739.88;2622249;47;20038;-68
2021/08/24 06:09:20;;;;;;;7.32;4.35;;;;;;;13.88;74.45;99739.28;2623523;54;20026;-68
2021/08/24 06:11:52;;;;;;;9.40;6.03;;;;;;;13.99;74.85;99737.91;2621365;47;20070;-69
2021/08/24 06:14:26;;;;;;;6.78;4.50;;;;;;;14.11;74.66;99731.06;2622043;54;20041;-67
2021/08/24 06:16:57;;;;;;;6.13;4.63;;;;;;;14.17;74.13;99730.31;2621893;54;20022;-68
2021/08/24 06:19:27;;;;;;;8.10;4.32;;;;;;;14.23;74.59;99736.66;2622682;54;20035;-68
2021/08/24 06:21:59;;;;;;;6.47;5.03;;;;;;;14.32;74.33;99736.31;2622065;47;20034;-68
2021/08/24 06:24:34;;;;;;;6.68;5.07;;;;;;;14.42;74.20;99741.31;2620443;54;20033;-69
2021/08/24 06:27:04;;;;;;;4.75;4.20;;;;;;;14.45;72.92;99740.94;2619722;51;20027;-68
2021/08/24 06:29:34;;;;;;;5.15;4.35;;;;;;;14.48;73.30;99742.38;2621114;54;20027;-67
2021/08/24 06:32:07;;;;;;;5.88;4.32;;;;;;;14.56;73.35;99744.91;2620020;47;20034;-68
2021/08/24 06:34:37;;;;;;;6.53;4.67;;;;;;;14.70;73.15;99740.50;2619945;47;20038;-69
2021/08/24 06:37:07;;;;;;;6.18;3.85;;;;;;;14.73;72.31;99740.09;2619475;47;20038;-67
2021/08/24 06:39:39;;;;;;;5.80;4.05;;;;;;;14.75;72.16;99744.22;2621298;54;20037;-67
2021/08/24 06:42:09;;;;;;;6.25;3.67;;;;;;;14.81;72.12;99737.25;2620596;47;20086;-67
2021/08/24 06:44:39;;;;;;;9.13;4.68;;;;;;;14.87;71.71;99736.50;2620671;54;20538;-68
2021/08/24 06:47:08;;;;;;;7.05;3.15;;;;;;;14.93;71.69;99741.00;2619302;46;20070;-69
2021/08/24 06:49:39;;;;;;;7.93;4.28;;;;;;;14.99;71.14;99742.91;2619935;47;20083;-69
2021/08/24 06:52:09;;;;;;;4.38;3.53;;;;;;;15.08;70.85;99743.53;2622437;47;20043;-66
2021/08/24 06:54:41;;;;;;;6.97;3.40;;;;;;;15.16;70.33;99735.38;2622433;54;20023;-69
2021/08/24 06:57:11;;;;;;;7.35;4.32;;;;;;;15.24;70.03;99731.72;2621799;54;20057;-68
2021/08/24 06:59:40;;;;;;;4.90;3.15;;;;;;;15.23;68.81;99733.56;2620718;54;20049;-67
2021/08/24 07:02:10;;;;;;;6.03;3.78;;;;;;;15.24;69.53;99729.88;2621671;54;20041;-67
2021/08/24 07:04:40;;;;;;;4.35;3.25;;;;;;;15.31;68.70;99727.25;2620765;39;20483;-67
2021/08/24 07:07:10;;;;;;;5.65;3.30;;;;;;;15.34;68.44;99729.47;2621576;54;20039;-67
2021/08/24 07:09:42;;;;;;;5.68;5.03;;;;;;;15.35;68.39;99729.31;2622426;54;20038;-67
2021/08/24 07:12:12;;;;;;;5.38;3.80;;;;;;;15.41;68.60;99727.66;2621689;54;20431;-68
2021/08/24 07:14:41;;;;;;;6.43;3.75;;;;;;;15.50;68.06;99729.09;2622274;54;20022;-68
2021/08/24 07:17:11;;;;;;;5.07;3.10;;;;;;;15.58;67.94;99726.25;2621788;54;20030;-67
2021/08/24 07:19:41;;;;;;;7.03;2.55;;;;;;;15.65;65.47;99734.31;2622014;54;20031;-68
2021/08/24 07:22:11;;;;;;;3.53;2.20;;;;;;;15.62;64.69;99737.34;2621882;54;20049;-68
2021/08/24 07:24:43;;;;;;;3.45;2.05;;;;;;;15.65;63.93;99736.16;2621491;54;20037;-67
2021/08/24 07:27:13;;;;;;;5.40;2.17;;;;;;;15.74;64.43;99730.41;2621854;54;20042;-68
2021/08/24 07:29:43;;;;;;;5.45;2.35;;;;;;;15.89;63.52;99732.91;2621978;46;20057;-68
2021/08/24 07:32:12;;;;;;;5.57;2.30;;;;;;;15.95;62.03;99729.41;2621642;54;20043;-68
2021/08/24 07:34:42;;;;;;;4.97;2.40;;;;;;;15.97;61.63;99727.38;2621362;54;20026;-68
2021/08/24 07:37:12;;;;;;;7.63;2.03;;;;;;;15.97;60.57;99722.03;2619656;47;20546;-68
2021/08/24 07:39:44;;;;;;;3.53;1.85;;;;;;;16.00;60.89;99728.78;2620162;54;20030;-67
2021/08/24 07:42:14;;;;;;;2.88;2.17;;;;;;;16.03;60.73;99721.19;2619618;54;20033;-68
2021/08/24 07:44:44;;;;;;;2.88;2.10;;;;;;;16.07;59.38;99730.44;2620100;54;20553;-68
2021/08/24 07:47:14;;;;;;;3.17;2.45;;;;;;;16.06;60.15;99722.66;2619692;54;20034;-67
2021/08/24 07:49:46;;;;;;;2.70;2.03;;;;;;;16.19;59.97;99724.47;2621011;39;20494;-67
2021/08/24 07:52:16;;;;;;;4.00;2.45;;;;;;;16.30;59.65;99724.69;2620329;39;20461;-68
2021/08/24 07:54:49;;;;;;;5.85;2.40;;;;;;;16.33;59.17;99721.59;2620688;47;20538;-67
2021/08/24 07:57:19;;;;;;;3.90;2.10;;;;;;;16.35;59.27;99719.53;2620107;46;20529;-70
2021/08/24 07:59:48;;;;;;;7.03;3.60;;;;;;;16.42;58.96;99719.53;2619742;47;20576;-68
2021/08/24 08:02:19;;;;;;;5.60;3.75;;;;;;;16.46;58.62;99718.09;2620402;54;20045;-68
2021/08/24 08:04:49;;;;;;;4.72;3.28;;;;;;;16.53;58.26;99718.06;2620057;54;20034;-68
2021/08/24 08:07:19;;;;;;;3.55;2.85;;;;;;;16.61;57.41;99720.50;2619855;47;20039;-68
2021/08/24 08:09:51;;;;;;;9.93;2.40;;;;;;;16.63;56.21;99717.63;2620365;54;20121;-67
2021/08/24 08:12:22;;;;;;;5.50;3.20;;;;;;;16.63;55.87;99715.78;2619422;54;20037;-67
2021/08/24 08:14:52;;;;;;;3.08;2.10;;;;;;;16.60;55.84;99719.69;2619317;54;20023;-66
2021/08/24 08:17:22;;;;;;;2.53;2.00;;;;;;;16.63;56.12;99725.66;2621945;47;20133;-67
2021/08/24 08:19:52;;;;;;;2.67;2.22;;;;;;;16.78;56.71;99718.25;2622255;54;20557;-68
2021/08/24 08:22:21;;;;;;;3.42;2.75;;;;;;;16.86;55.77;99715.34;2623392;54;20037;-68
2021/08/24 08:24:54;;;;;;;4.72;1.85;;;;;;;16.80;54.73;99713.50;2623701;39;20434;-68
2021/08/24 08:27:23;;;;;;;5.38;3.25;;;;;;;16.78;53.75;99705.72;2622311;51;20037;-68
2021/08/24 08:29:53;;;;;;;4.53;2.60;;;;;;;16.83;52.60;99705.06;2623556;54;20041;-68
2021/08/24 08:32:26;;;;;;;3.85;2.33;;;;;;;16.91;53.36;99709.38;2622816;39;20439;-68
2021/08/24 08:34:57;;;;;;;3.50;2.72;;;;;;;17.03;52.64;99699.66;2621867;54;20034;-68
2021/08/24 08:37:27;;;;;;;4.40;2.03;;;;;;;17.06;53.04;99702.72;2621817;54;20570;-68
2021/08/24 08:39:59;;;;;;;3.35;2.05;;;;;;;17.12;51.97;99711.72;2623474;54;20038;-68
2021/08/24 08:42:50;;;;;;;2.15;1.95;;;;;;;17.06;51.32;99702.72;2624255;54;20026;-67
2021/08/24 08:45:25;;;;;;;2.00;1.63;;;;;;;17.08;51.32;99702.50;2623950;54;20035;-68
2021/08/24 08:48:08;;;;;;;4.82;1.70;;;;;;;17.07;50.83;99703.53;2623231;54;20049;-68
2021/08/24 08:50:47;;;;;;;2.85;1.75;;;;;;;17.09;51.28;99704.94;2623829;47;20027;-68
2021/08/24 08:53:26;;;;;;;3.60;2.00;;;;;;;17.11;51.71;99699.41;2624046;54;20030;-68
2021/08/24 08:56:06;;;;;;;2.70;1.83;;;;;;;17.30;51.09;99705.66;2623605;54;20030;-67
2021/08/24 08:58:48;;;;;;;2.42;2.00;;;;;;;17.35;51.11;99703.19;2623453;54;20037;-67
2021/08/24 09:01:22;;;;;;;3.58;2.10;;;;;;;17.40;50.79;99708.72;2623787;47;20031;-67
2021/08/24 09:03:56;;;;;;;3.30;1.95;;;;;;;17.38;51.45;99699.25;2623525;47;20039;-67
2021/08/24 09:06:29;;;;;;;5.63;2.25;;;;;;;17.47;51.68;99697.97;2622999;47;20045;-67
2021/08/24 09:09:03;;;;;;;5.20;2.30;;;;;;;17.57;51.95;99701.81;2623962;54;20034;-67
2021/08/24 09:11:40;;;;;;;3.78;1.90;;;;;;;17.63;51.04;99694.75;2623547;54;20034;-68
2021/08/24 09:14:18;;;;;;;4.85;4.10;;;;;;;17.76;50.38;99692.03;2623195;54;20046;-68
2021/08/24 09:16:52;;;;;;;5.97;2.83;;;;;;;17.76;50.63;99688.56;2623173;54;20034;-68
2021/08/24 09:19:29;;;;;;;3.45;2.53;;;;;;;17.82;51.76;99693.84;2623984;54;20613;-68
2021/08/24 09:21:58;;;;;;;5.25;2.72;;;;;;;17.87;51.12;99695.03;2622855;54;20042;-69
2021/08/24 09:24:32;;;;;;;4.93;2.00;;;;;;;17.84;51.54;99696.31;2622730;54;20045;-70
2021/08/24 09:27:07;;;;;;;4.82;2.70;;;;;;;17.86;51.64;99699.56;2621786;54;20147;-69
2021/08/24 09:29:40;;;;;;;10.27;2.47;;;;;;;17.88;52.16;99704.69;2623241;54;20049;-68
2021/08/24 09:32:12;;;;;;;2.78;2.00;;;;;;;17.67;51.61;99695.97;2622826;54;20034;-69
2021/08/24 09:34:44;;;;;;;3.05;2.00;;;;;;;17.77;52.13;99699.03;2622812;54;20624;-68
2021/08/24 09:37:18;;;;;;;4.83;2.50;;;;;;;17.93;51.76;99700.34;2622171;54;20838;-68
2021/08/24 09:39:48;;;;;;;;;;;;;;;18.02;51.15;99700.88;2622857;47;20271;-68
2021/08/24 09:42:35;;;;;;;4.03;2.15;;;;;;;17.97;50.73;99700.72;2622193;47;19939;-70
2021/08/24 09:45:10;;;;;;;5.68;2.40;;;;;;;17.94;51.91;99688.59;2622132;54;20533;-68
2021/08/24 09:47:39;;;;;;;3.05;2.13;;;;;;;18.04;51.59;99696.13;2622172;54;20033;-68
2021/08/24 09:50:17;;;;;;;4.30;2.30;;;;;;;18.18;50.67;99700.31;2622822;54;20035;-68
2021/08/24 09:52:50;;;;;;;4.40;1.65;;;;;;;18.19;50.50;99699.28;2622173;54;20038;-68
2021/08/24 09:55:27;;;;;;;3.58;2.38;;;;;;;18.25;49.93;99703.75;2623158;47;20034;-68
2021/08/24 09:58:03;;;;;;;4.22;2.30;;;;;;;18.26;50.41;99704.56;2622159;54;20580;-69
2021/08/24 10:00:41;;;;;;;1.90;1.70;;;;;;;18.31;50.62;99686.81;2624019;54;20027;-68
2021/08/24 10:03:23;;;;;;;6.75;2.38;;;;;;;18.34;51.00;99685.56;2623999;54;20030;-68
2021/08/24 10:06:03;;;;;;;3.25;2.08;;;;;;;18.48;49.91;99686.22;2623866;54;20027;-68
2021/08/24 10:08:36;;;;;;;3.05;2.30;;;;;;;18.33;50.58;99683.94;2623514;54;20058;-68
2021/08/24 10:11:10;;;;;;;4.63;2.70;;;;;;;18.43;49.83;99691.44;2624017;54;20034;-68
2021/08/24 10:13:46;;;;;;;3.60;2.28;;;;;;;18.44;49.94;99699.22;2623270;47;20035;-68
2021/08/24 10:16:26;;;;;;;3.90;2.28;;;;;;;18.50;50.47;99678.81;2622941;47;20030;-68
2021/08/24 10:19:09;;;;;;;3.53;2.30;;;;;;;18.59;50.11;99674.78;2623507;54;20037;-68
2021/08/24 10:21:43;;;;;;;5.22;2.10;;;;;;;18.68;50.11;99675.28;2623233;47;20026;-67
2021/08/24 10:24:16;;;;;;;4.57;2.42;;;;;;;18.81;49.30;99672.47;2622805;54;20038;-68
2021/08/24 10:26:46;;;;;;;3.85;2.38;;;;;;;18.81;48.65;99670.63;2622088;54;20030;-67
2021/08/24 10:29:26;;;;;;;2.70;2.10;;;;;;;18.72;48.61;99669.28;2624259;54;20034;-68
2021/08/24 10:31:58;;;;;;;3.33;2.30;;;;;;;18.69;49.08;99672.38;2623796;47;20031;-68
2021/08/24 10:34:34;;;;;;;3.00;2.28;;;;;;;18.85;49.21;99664.81;2624448;54;20027;-69
2021/08/24 10:37:50;;;;;;;3.47;2.25;;;;;;;19.03;49.19;99662.13;2624185;54;20038;-68
2021/08/24 10:40:26;;;;;;;4.35;2.08;;;;;;;19.11;48.31;99671.72;2624057;54;20037;-68
2021/08/24 10:43:25;;;;;;;5.45;2.25;;;;;;;19.15;47.86;99667.53;2625593;39;20450;-68
2021/08/24 10:46:14;;;;;;;2.90;1.77;;;;;;;19.07;48.83;99673.22;2623194;54;20592;-67
2021/08/24 10:48:45;;;;;;;10.60;2.50;;;;;;;19.18;48.69;99675.91;2624163;54;20585;-67
2021/08/24 10:51:25;;;;;;;3.58;2.15;;;;;;;19.26;48.58;99667.53;2624827;54;20039;-67
2021/08/24 10:54:07;;;;;;;5.90;2.22;;;;;;;19.28;48.39;99667.34;2624467;54;20038;-67
2021/08/24 10:56:44;;;;;;;4.60;2.03;;;;;;;19.35;48.33;99670.75;2623486;47;20597;-67
2021/08/24 10:59:27;;;;;;;5.13;2.67;;;;;;;19.45;48.92;99664.81;2622960;54;20030;-67
2021/08/24 11:02:07;;;;;;;4.65;2.42;;;;;;;19.62;48.08;99649.72;2621645;47;20025;-68
2021/08/24 11:04:54;;;;;;;5.00;2.88;;;;;;;19.72;48.38;99660.72;2620386;54;20047;-69
2021/08/24 11:07:44;;;;;;;5.00;2.80;;;;;;;19.84;48.27;99652.69;2620866;54;20031;-68
2021/08/24 11:10:33;;;;;;;4.68;2.50;;;;;;;19.90;48.75;99659.78;2621250;54;20026;-68
2021/08/24 11:13:25;;;;;;;4.50;2.70;;;;;;;19.83;48.53;99659.06;2621549;54;20035;-67
2021/08/24 11:16:02;;;;;;;3.45;2.67;;;;;;;19.85;49.26;99661.53;2622272;54;20035;-67
2021/08/24 11:18:46;;;;;;;5.30;2.65;;;;;;;19.86;49.19;99660.47;2621542;54;20039;-68
2021/08/24 11:21:34;;;;;;;2.80;2.50;;;;;;;19.97;49.47;99657.00;2622095;54;20035;-67
2021/08/24 11:24:23;;;;;;;3.00;2.33;;;;;;;20.09;49.40;99660.50;2619991;47;20027;-69
2021/08/24 11:27:00;;;;;;;3.20;2.45;;;;;;;20.17;49.27;99652.09;2619595;54;20546;-69
2021/08/24 11:29:36;;;;;;;4.70;2.85;;;;;;;20.37;49.37;99656.25;2620387;54;20042;-67
2021/08/24 11:32:20;;;;;;;5.05;2.30;;;;;;;20.45;48.84;99648.69;2620309;54;20035;-67
2021/08/24 11:34:59;;;;;;;3.28;2.38;;;;;;;20.32;49.58;99653.47;2620740;54;20078;-68
2021/08/24 11:37:32;;;;;;;4.55;2.38;;;;;;;20.16;50.11;99655.00;2620637;54;20104;-68
2021/08/24 11:40:06;;;;;;;4.55;2.78;;;;;;;20.01;50.58;99653.63;2620525;54;20034;-68
2021/08/24 11:42:39;;;;;;;;;;;;;;;20.24;49.80;99650.09;2619946;39;20486;-67
2021/08/24 11:45:17;;;;;;;4.90;2.63;;;;;;;20.53;50.04;99648.34;2618207;47;19942;-69
2021/08/24 11:47:53;;;;;;;4.10;2.28;;;;;;;20.78;49.24;99658.78;2618221;54;20042;-68
2021/08/24 11:50:30;;;;;;;2.00;1.88;;;;;;;20.78;48.86;99648.03;2618937;54;20033;-68
2021/08/24 11:53:06;;;;;;;2.88;2.47;;;;;;;20.94;48.94;99654.53;2619192;54;20053;-69
2021/08/24 11:55:41;;;;;;;6.18;2.60;;;;;;;20.92;49.11;99653.94;2618767;54;20049;-69
2021/08/24 11:58:22;;;;;;;3.67;2.55;;;;;;;20.95;48.60;99658.03;2617963;47;20031;-69
2021/08/24 12:00:56;;;;;;;5.50;2.70;;;;;;;20.85;48.90;99650.56;2618683;54;20038;-68
2021/08/24 12:03:26;;;;;;;;;;;;;;;20.68;49.34;99658.56;2620388;54;20030;-67
2021/08/24 12:06:07;;;;;;;3.72;2.33;;;;;;;20.72;49.15;99643.59;2621518;39;20338;-67